Time;durP1;ratioP1;P1;durP2;ratioP2;P2;SDS_P1;SDS_P2;PMS_P1;PMS_P2;Temp;Humidity;BMP_temperature;BMP_pressure;BME280_temperature;BME280_humidity;BME280_pressure;Samples;Min_cycle;Max_cycle;Signal;HPM_P1;HPM_P2
2023/06/04 00:02:17;;;;;;;3.25;1.88;;;16.80;99.90;;;;;;5072645;28;20559;-74
2023/06/04 00:04:43;;;;;;;3.17;1.70;;;16.80;99.90;;;;;;5072804;28;20103;-73
2023/06/04 00:07:08;;;;;;;5.25;1.70;;;16.80;99.90;;;;;;5072185;28;20502;-74
2023/06/04 00:09:34;;;;;;;3.45;1.85;;;16.60;99.90;;;;;;5072575;28;20098;-73
2023/06/04 00:12:00;;;;;;;3.67;2.22;;;16.50;99.90;;;;;;5072655;28;20471;-73
2023/06/04 00:14:26;;;;;;;3.72;1.80;;;16.60;99.90;;;;;;5072477;28;20035;-73
2023/06/04 00:16:51;;;;;;;4.13;2.42;;;16.70;99.90;;;;;;5072348;28;20025;-73
2023/06/04 00:19:17;;;;;;;3.75;1.67;;;16.60;99.90;;;;;;5071908;28;20039;-74
2023/06/04 00:21:43;;;;;;;3.80;1.80;;;16.60;99.90;;;;;;5072168;28;20103;-74
2023/06/04 00:24:08;;;;;;;4.95;1.67;;;16.70;99.90;;;;;;5072358;28;20085;-74
2023/06/04 00:26:34;;;;;;;4.40;1.63;;;16.70;99.90;;;;;;5072317;28;20024;-74
2023/06/04 00:29:01;;;;;;;3.33;1.90;;;16.70;99.90;;;;;;5072458;28;20031;-74
2023/06/04 00:31:26;;;;;;;5.43;2.70;;;16.80;99.90;;;;;;5072061;28;20043;-73
2023/06/04 00:33:52;;;;;;;4.20;1.88;;;16.70;99.90;;;;;;5072313;28;20107;-73
2023/06/04 00:36:18;;;;;;;4.40;2.30;;;16.70;99.90;;;;;;5072266;28;20078;-73
2023/06/04 00:38:43;;;;;;;4.25;2.17;;;16.70;99.90;;;;;;5072129;28;20039;-73
2023/06/04 00:41:09;;;;;;;3.67;2.20;;;16.70;99.90;;;;;;5071975;28;20032;-74
2023/06/04 00:43:35;;;;;;;3.75;2.40;;;16.70;99.90;;;;;;5072275;28;20039;-73
2023/06/04 00:46:03;;;;;;;4.18;2.22;;;16.70;99.90;;;;;;5075536;28;20021;-73
2023/06/04 00:48:30;;;;;;;4.22;2.83;;;16.70;99.90;;;;;;5076003;28;20124;-73
2023/06/04 00:50:56;;;;;;;4.68;2.63;;;16.70;99.90;;;;;;5075742;28;20028;-73
2023/06/04 00:53:24;;;;;;;3.25;1.95;;;16.70;99.90;;;;;;5075814;28;20034;-73
2023/06/04 00:55:51;;;;;;;3.92;2.28;;;16.60;99.90;;;;;;5074984;28;20085;-73
2023/06/04 00:58:17;;;;;;;4.50;2.25;;;16.50;99.90;;;;;;5075571;28;20093;-73
2023/06/04 01:00:44;;;;;;;4.30;2.45;;;16.50;99.90;;;;;;5075355;28;20017;-73
2023/06/04 01:03:17;;;;;;;5.65;2.45;;;16.40;99.90;;;;;;5075016;28;20044;-73
2023/06/04 01:05:54;;;;;;;4.28;2.10;;;16.40;99.90;;;;;;5075080;28;20028;-74
2023/06/04 01:08:19;;;;;;;4.03;2.33;;;16.60;99.90;;;;;;5075348;28;20033;-73
2023/06/04 01:10:52;;;;;;;4.28;2.90;;;16.70;99.90;;;;;;5075553;28;20158;-73
2023/06/04 01:13:18;;;;;;;4.15;2.60;;;16.80;99.90;;;;;;5075109;28;20024;-73
2023/06/04 01:15:44;;;;;;;3.78;2.30;;;16.80;99.90;;;;;;5074994;28;20115;-73
2023/06/04 01:18:11;;;;;;;4.18;2.40;;;16.80;99.90;;;;;;5075229;28;20385;-73
2023/06/04 01:20:44;;;;;;;5.35;3.03;;;16.90;99.90;;;;;;5075031;28;20029;-74
2023/06/04 01:23:33;;;;;;;5.05;3.08;;;16.90;99.90;;;;;;5075099;28;20028;-73
2023/06/04 01:26:02;;;;;;;4.45;2.33;;;16.90;99.90;;;;;;5075141;28;20065;-73
2023/06/04 01:28:29;;;;;;;6.03;2.85;;;16.80;99.90;;;;;;5074334;28;20028;-73
2023/06/04 01:30:56;;;;;;;4.20;2.25;;;16.80;99.90;;;;;;5075124;28;20033;-73
2023/06/04 01:33:22;;;;;;;5.05;3.00;;;16.80;99.90;;;;;;5074668;28;20032;-74
2023/06/04 01:35:49;;;;;;;4.20;2.70;;;16.70;99.90;;;;;;5074934;28;20550;-74
2023/06/04 01:38:15;;;;;;;3.88;2.10;;;16.80;99.90;;;;;;5074815;28;20040;-73
2023/06/04 01:40:41;;;;;;;3.65;2.33;;;16.70;99.90;;;;;;5074879;28;20036;-74
2023/06/04 01:43:07;;;;;;;4.72;2.90;;;16.70;99.90;;;;;;5074668;28;20471;-73
2023/06/04 01:45:33;;;;;;;4.47;2.67;;;16.70;99.90;;;;;;5074906;28;20020;-74
2023/06/04 01:48:02;;;;;;;4.88;3.38;;;16.70;99.90;;;;;;5074419;28;20086;-74
2023/06/04 01:50:28;;;;;;;4.35;2.63;;;16.70;99.90;;;;;;5074176;28;20037;-73
2023/06/04 01:52:54;;;;;;;4.65;2.63;;;16.50;99.90;;;;;;5074475;28;20024;-74
2023/06/04 01:55:20;;;;;;;7.90;2.70;;;16.50;99.90;;;;;;5073609;28;20021;-74
2023/06/04 01:57:47;;;;;;;4.47;2.28;;;16.50;99.90;;;;;;5074361;28;20410;-74
2023/06/04 02:00:14;;;;;;;4.10;2.33;;;16.50;99.90;;;;;;5074571;28;20025;-74
2023/06/04 02:02:48;;;;;;;4.28;2.63;;;16.50;99.90;;;;;;5072986;28;20413;-74
2023/06/04 02:05:13;;;;;;;4.13;2.05;;;16.50;99.90;;;;;;5074225;28;20662;-74
2023/06/04 02:07:41;;;;;;;5.05;2.70;;;16.50;99.90;;;;;;5074370;28;20142;-74
2023/06/04 02:10:08;;;;;;;6.30;2.97;;;16.30;99.90;;;;;;5074363;28;20028;-74
2023/06/04 02:12:37;;;;;;;6.07;3.95;;;16.10;99.90;;;;;;5073737;28;20493;-74
2023/06/04 02:15:03;;;;;;;5.60;3.88;;;15.90;99.90;;;;;;5073871;28;20032;-74
2023/06/04 02:17:32;;;;;;;8.05;4.55;;;15.70;99.90;;;;;;5074272;28;20028;-74
2023/06/04 02:19:59;;;;;;;8.70;5.78;;;15.60;99.90;;;;;;5074046;28;20463;-74
2023/06/04 02:22:25;;;;;;;6.57;3.45;;;16.00;99.90;;;;;;5073820;28;20021;-73
2023/06/04 02:24:51;;;;;;;5.53;3.60;;;16.00;99.90;;;;;;5073775;28;20444;-74
2023/06/04 02:27:17;;;;;;;6.75;3.75;;;15.90;99.90;;;;;;5073851;28;20032;-74
2023/06/04 02:29:43;;;;;;;6.32;3.45;;;16.00;99.90;;;;;;5073267;28;20029;-74
2023/06/04 02:32:09;;;;;;;6.55;3.97;;;16.00;99.90;;;;;;5073289;28;20085;-73
2023/06/04 02:34:35;;;;;;;7.30;5.63;;;16.10;99.90;;;;;;5073761;28;20034;-74
2023/06/04 02:37:01;;;;;;;6.43;4.72;;;16.10;99.90;;;;;;5073509;28;20107;-74
2023/06/04 02:39:27;;;;;;;5.78;4.13;;;16.20;99.90;;;;;;5073625;28;20028;-74
2023/06/04 02:41:52;;;;;;;5.07;3.25;;;16.00;99.90;;;;;;5072797;28;20078;-74
2023/06/04 02:44:18;;;;;;;8.90;5.15;;;16.10;99.90;;;;;;5072941;28;20028;-74
2023/06/04 02:46:44;;;;;;;8.25;4.35;;;16.00;99.90;;;;;;5073498;28;20031;-74
2023/06/04 02:49:13;;;;;;;5.95;3.95;;;16.10;99.90;;;;;;5073485;28;20479;-74
2023/06/04 02:51:40;;;;;;;6.20;3.38;;;16.20;99.90;;;;;;5073003;28;20024;-74
2023/06/04 02:54:06;;;;;;;4.25;2.53;;;16.30;99.90;;;;;;5072987;28;20045;-74
2023/06/04 02:56:32;;;;;;;8.32;4.43;;;16.30;99.90;;;;;;5072882;28;20072;-74
2023/06/04 02:58:57;;;;;;;6.60;3.88;;;16.40;99.90;;;;;;5073072;28;20467;-73
2023/06/04 03:01:24;;;;;;;6.15;3.70;;;16.30;99.90;;;;;;5063080;28;20052;-75
2023/06/04 03:03:50;;;;;;;6.38;3.65;;;16.30;99.90;;;;;;5049675;28;20103;-75
2023/06/04 03:06:18;;;;;;;5.97;3.50;;;16.20;99.90;;;;;;5055274;28;20163;-74
2023/06/04 03:08:43;;;;;;;4.97;3.45;;;16.20;99.90;;;;;;5068082;28;20050;-75
2023/06/04 03:11:09;;;;;;;7.03;3.45;;;16.10;99.90;;;;;;5067531;28;20025;-75
2023/06/04 03:13:35;;;;;;;4.57;2.78;;;16.20;99.90;;;;;;5067736;28;20375;-74
2023/06/04 03:16:02;;;;;;;4.05;3.10;;;16.20;99.90;;;;;;5068204;28;20056;-75
2023/06/04 03:18:30;;;;;;;4.80;3.30;;;16.20;99.90;;;;;;5057250;28;20016;-74
2023/06/04 03:20:56;;;;;;;6.57;4.22;;;16.30;99.90;;;;;;5065669;28;20111;-75
2023/06/04 03:23:22;;;;;;;7.38;3.72;;;16.20;99.90;;;;;;5065675;28;20099;-75
2023/06/04 03:25:47;;;;;;;5.25;3.40;;;16.30;99.90;;;;;;5067995;28;20455;-75
2023/06/04 03:28:13;;;;;;;4.90;2.90;;;16.20;99.90;;;;;;5068204;28;20390;-74
2023/06/04 03:30:42;;;;;;;6.47;3.30;;;16.20;99.90;;;;;;5067729;28;20111;-74
2023/06/04 03:33:08;;;;;;;5.05;3.00;;;16.10;99.90;;;;;;5068419;28;20032;-75
2023/06/04 03:35:34;;;;;;;7.35;2.80;;;16.10;99.90;;;;;;5068546;28;20024;-75
2023/06/04 03:38:00;;;;;;;3.53;2.35;;;16.20;99.90;;;;;;5068473;28;20037;-75
2023/06/04 03:40:25;;;;;;;3.95;2.70;;;16.20;99.90;;;;;;5068079;28;20478;-75
2023/06/04 03:42:51;;;;;;;5.03;2.83;;;16.30;99.90;;;;;;5067847;28;20043;-75
2023/06/04 03:45:16;;;;;;;5.88;2.85;;;16.00;99.90;;;;;;5068045;28;20035;-75
2023/06/04 03:47:42;;;;;;;4.30;2.50;;;16.10;99.90;;;;;;5068253;28;20634;-75
2023/06/04 03:50:08;;;;;;;4.47;2.63;;;16.20;99.90;;;;;;5068048;28;20075;-75
2023/06/04 03:52:34;;;;;;;5.97;2.42;;;16.00;99.90;;;;;;5068216;28;20033;-74
2023/06/04 03:55:00;;;;;;;5.18;2.83;;;15.70;99.90;;;;;;5067644;28;20020;-75
2023/06/04 03:57:25;;;;;;;5.28;3.58;;;15.70;99.90;;;;;;5068138;28;20044;-75
2023/06/04 03:59:52;;;;;;;5.10;3.05;;;15.80;99.90;;;;;;5067615;28;20047;-75
2023/06/04 04:02:18;;;;;;;4.30;2.65;;;15.90;99.90;;;;;;5068118;28;20546;-74
2023/06/04 04:04:44;;;;;;;4.22;2.70;;;16.00;99.90;;;;;;5065798;28;20039;-75
2023/06/04 04:07:10;;;;;;;4.28;2.63;;;16.00;99.90;;;;;;5064745;28;20083;-75
2023/06/04 04:09:36;;;;;;;4.80;3.10;;;16.10;99.90;;;;;;5066416;28;21059;-75
2023/06/04 04:12:03;;;;;;;4.60;2.85;;;16.00;99.90;;;;;;5067828;28;20036;-75
2023/06/04 04:14:28;;;;;;;4.95;2.65;;;16.00;99.90;;;;;;5067926;28;20060;-75
2023/06/04 04:16:54;;;;;;;6.38;2.28;;;16.00;99.90;;;;;;5067858;28;20063;-75
2023/06/04 04:19:20;;;;;;;4.45;2.38;;;16.10;99.90;;;;;;5069126;28;20024;-74
2023/06/04 04:21:48;;;;;;;4.93;2.50;;;16.00;99.90;;;;;;5072073;28;20055;-75
2023/06/04 04:24:23;;;;;;;4.88;2.75;;;15.90;99.90;;;;;;5071889;28;20651;-75
2023/06/04 04:26:53;;;;;;;4.35;2.80;;;16.00;99.90;;;;;;5072110;28;20028;-75
2023/06/04 04:29:24;;;;;;;4.45;2.38;;;16.10;99.90;;;;;;5071648;28;20039;-75
2023/06/04 04:31:53;;;;;;;4.22;2.20;;;16.20;99.90;;;;;;5071292;28;20526;-75
2023/06/04 04:34:21;;;;;;;4.45;2.63;;;16.20;99.90;;;;;;5071842;28;21002;-75
2023/06/04 04:36:52;;;;;;;4.20;2.65;;;16.30;99.90;;;;;;5071448;28;20020;-75
2023/06/04 04:39:23;;;;;;;4.43;2.90;;;16.30;99.90;;;;;;5071380;28;20032;-75
2023/06/04 04:41:48;;;;;;;4.65;2.53;;;16.30;99.90;;;;;;5070826;28;20024;-75
2023/06/04 04:44:14;;;;;;;4.53;3.13;;;16.30;99.90;;;;;;5068295;28;20044;-75
2023/06/04 04:46:40;;;;;;;4.43;2.80;;;16.20;99.90;;;;;;5068275;28;20040;-75
2023/06/04 04:49:05;;;;;;;6.25;2.88;;;16.30;99.90;;;;;;5068334;28;20025;-75
2023/06/04 04:51:31;;;;;;;4.78;3.00;;;16.40;99.90;;;;;;5068105;28;20056;-75
2023/06/04 04:54:00;;;;;;;5.35;3.08;;;16.40;99.90;;;;;;5068477;28;20100;-75
2023/06/04 04:56:26;;;;;;;5.90;2.65;;;16.20;99.90;;;;;;5067609;28;20041;-75
2023/06/04 04:58:52;;;;;;;4.28;2.35;;;16.30;99.90;;;;;;5068415;28;20032;-74
2023/06/04 05:01:18;;;;;;;4.07;2.50;;;16.40;99.90;;;;;;5070501;28;20028;-76
2023/06/04 05:03:43;;;;;;;4.85;2.80;;;16.40;99.90;;;;;;5069805;28;20036;-75
2023/06/04 05:06:09;;;;;;;4.72;2.45;;;16.40;99.90;;;;;;5068131;28;20311;-75
2023/06/04 05:08:35;;;;;;;5.43;2.95;;;16.50;99.90;;;;;;5067569;28;20032;-75
2023/06/04 05:11:01;;;;;;;5.20;2.35;;;16.70;99.90;;;;;;5070774;28;20032;-75
2023/06/04 05:13:27;;;;;;;5.38;2.38;;;16.70;99.90;;;;;;5070960;28;20166;-75
2023/06/04 05:15:52;;;;;;;5.38;2.40;;;16.80;99.90;;;;;;5070294;28;20532;-75
2023/06/04 05:18:21;;;;;;;4.47;2.95;;;16.80;99.90;;;;;;5070461;28;20051;-75
2023/06/04 05:20:47;;;;;;;4.93;3.30;;;16.90;99.90;;;;;;5070669;28;20040;-75
2023/06/04 05:23:13;;;;;;;4.47;2.63;;;16.70;99.90;;;;;;5070560;28;20052;-75
2023/06/04 05:25:40;;;;;;;5.60;3.13;;;16.70;99.90;;;;;;5070327;28;20487;-75
2023/06/04 05:28:06;;;;;;;5.93;2.65;;;16.70;99.90;;;;;;5070519;28;20036;-75
2023/06/04 05:30:33;;;;;;;5.28;3.08;;;16.60;99.90;;;;;;5070620;28;20028;-75
2023/06/04 05:32:59;;;;;;;5.82;2.85;;;16.60;99.90;;;;;;5070280;28;20419;-75
2023/06/04 05:35:25;;;;;;;4.10;2.58;;;16.70;99.90;;;;;;5070774;28;20089;-75
2023/06/04 05:37:54;;;;;;;5.88;3.55;;;16.60;99.90;;;;;;5070514;28;20020;-75
2023/06/04 05:40:23;;;;;;;5.57;3.17;;;16.70;99.90;;;;;;5070562;28;20336;-75
2023/06/04 05:42:49;;;;;;;5.30;3.03;;;16.80;99.90;;;;;;5070582;28;20032;-75
2023/06/04 05:45:15;;;;;;;4.85;2.78;;;16.90;99.90;;;;;;5069181;28;20032;-75
2023/06/04 05:47:40;;;;;;;4.60;2.80;;;16.90;99.90;;;;;;5070115;28;20052;-75
2023/06/04 05:50:07;;;;;;;4.82;2.50;;;17.00;99.90;;;;;;5070316;28;20386;-75
2023/06/04 05:52:36;;;;;;;4.85;3.00;;;17.10;99.90;;;;;;5070493;28;20111;-75
2023/06/04 05:55:02;;;;;;;5.93;3.78;;;17.30;99.90;;;;;;5069350;28;20027;-75
2023/06/04 05:57:28;;;;;;;5.38;3.33;;;17.40;99.90;;;;;;5066573;28;20041;-75
2023/06/04 05:59:54;;;;;;;4.70;3.00;;;17.50;99.90;;;;;;5067302;28;20029;-74
2023/06/04 06:02:19;;;;;;;9.35;3.97;;;17.70;99.90;;;;;;5067348;28;20115;-74
2023/06/04 06:04:45;;;;;;;6.03;4.15;;;17.80;99.90;;;;;;5067132;28;20459;-75
2023/06/04 06:07:11;;;;;;;4.70;2.88;;;17.80;99.90;;;;;;5066183;28;20077;-75
2023/06/04 06:09:36;;;;;;;4.93;2.88;;;17.90;99.90;;;;;;5066550;28;20479;-75
2023/06/04 06:12:02;;;;;;;4.97;2.75;;;17.80;99.90;;;;;;5066571;28;20037;-75
2023/06/04 06:14:28;;;;;;;5.53;3.40;;;17.80;99.90;;;;;;5066391;28;20041;-75
2023/06/04 06:16:53;;;;;;;5.25;2.63;;;17.70;99.90;;;;;;5065930;28;20111;-75
2023/06/04 06:19:19;;;;;;;4.30;2.70;;;17.60;99.90;;;;;;5069129;28;20093;-75
2023/06/04 06:21:45;;;;;;;5.63;2.92;;;17.70;99.90;;;;;;5069398;28;20044;-75
2023/06/04 06:24:11;;;;;;;4.78;3.13;;;17.60;99.90;;;;;;5069604;28;20472;-75
2023/06/04 06:26:37;;;;;;;5.55;3.00;;;17.50;99.90;;;;;;5069464;28;20025;-75
2023/06/04 06:29:02;;;;;;;5.70;3.95;;;17.50;99.90;;;;;;5069193;28;20032;-75
2023/06/04 06:31:28;;;;;;;5.30;3.33;;;17.50;99.90;;;;;;5069034;28;20046;-75
2023/06/04 06:33:54;;;;;;;5.22;3.15;;;17.50;99.90;;;;;;5069263;28;20040;-75
2023/06/04 06:36:20;;;;;;;4.55;3.25;;;17.50;99.90;;;;;;5069133;28;20073;-75
2023/06/04 06:38:46;;;;;;;5.10;3.22;;;17.50;99.90;;;;;;5069057;28;20020;-75
2023/06/04 06:41:12;;;;;;;6.03;3.35;;;17.60;99.90;;;;;;5068380;28;20051;-75
2023/06/04 06:43:37;;;;;;;4.53;2.80;;;17.50;99.90;;;;;;5069125;28;20059;-75
2023/06/04 06:46:03;;;;;;;6.72;3.80;;;17.70;99.90;;;;;;5068902;28;20160;-75
2023/06/04 06:48:29;;;;;;;10.35;4.22;;;17.80;99.90;;;;;;5069221;28;20020;-75
2023/06/04 06:50:55;;;;;;;4.78;3.30;;;18.00;99.90;;;;;;5068920;28;20033;-75
2023/06/04 06:53:21;;;;;;;5.30;3.78;;;18.20;99.90;;;;;;5068920;28;20423;-75
2023/06/04 06:55:46;;;;;;;6.20;3.97;;;18.20;99.90;;;;;;5068417;28;20033;-75
2023/06/04 06:58:12;;;;;;;6.60;4.53;;;18.30;99.90;;;;;;5068636;28;20127;-75
2023/06/04 07:00:37;;;;;;;7.25;4.10;;;18.20;99.90;;;;;;5068993;28;20091;-75
2023/06/04 07:03:03;;;;;;;5.45;3.67;;;18.20;99.90;;;;;;5068836;28;20039;-75
2023/06/04 07:05:30;;;;;;;6.20;4.05;;;18.30;99.90;;;;;;5068852;28;20589;-75
2023/06/04 07:07:57;;;;;;;6.28;4.20;;;18.30;99.90;;;;;;5068709;28;20047;-75
2023/06/04 07:10:23;;;;;;;5.82;4.22;;;18.30;99.90;;;;;;5068594;28;20025;-75
2023/06/04 07:12:48;;;;;;;6.15;3.83;;;18.30;99.90;;;;;;5068510;28;20028;-75
2023/06/04 07:15:14;;;;;;;5.03;3.38;;;18.40;99.90;;;;;;5068765;28;20024;-75
2023/06/04 07:17:40;;;;;;;5.00;3.35;;;18.40;99.90;;;;;;5066842;28;20379;-75
2023/06/04 07:20:07;;;;;;;5.70;3.90;;;18.50;99.90;;;;;;5068264;28;20032;-74
2023/06/04 07:22:33;;;;;;;8.52;3.90;;;18.50;99.90;;;;;;5068342;28;20016;-75
2023/06/04 07:24:59;;;;;;;4.97;3.35;;;18.60;99.90;;;;;;5068579;28;20051;-75
2023/06/04 07:27:26;;;;;;;9.18;3.70;;;18.50;99.90;;;;;;5068263;28;20024;-75
2023/06/04 07:29:51;;;;;;;5.30;3.28;;;18.60;99.90;;;;;;5068598;28;20569;-75
2023/06/04 07:32:17;;;;;;;5.55;3.30;;;18.60;99.90;;;;;;5068412;28;20056;-75
2023/06/04 07:34:43;;;;;;;5.07;3.50;;;18.70;99.90;;;;;;5068264;28;20038;-75
2023/06/04 07:37:09;;;;;;;6.60;3.30;;;18.60;99.90;;;;;;5068467;28;20055;-75
2023/06/04 07:39:35;;;;;;;4.55;3.03;;;18.70;99.90;;;;;;5068325;28;20059;-75
2023/06/04 07:42:01;;;;;;;7.18;4.10;;;18.80;99.90;;;;;;5068322;28;20028;-75
2023/06/04 07:44:26;;;;;;;7.43;4.13;;;18.80;99.90;;;;;;5068127;28;20032;-75
2023/06/04 07:46:52;;;;;;;6.55;4.05;;;18.80;99.90;;;;;;5068507;28;20037;-75
2023/06/04 07:49:18;;;;;;;5.28;3.78;;;18.90;99.90;;;;;;5068226;28;20025;-75
2023/06/04 07:51:44;;;;;;;4.78;3.20;;;19.10;99.90;;;;;;5068447;28;20694;-75
2023/06/04 07:54:10;;;;;;;5.57;4.00;;;19.00;99.90;;;;;;5069108;28;20029;-75
2023/06/04 07:56:35;;;;;;;5.47;3.30;;;19.10;99.90;;;;;;5071998;28;20091;-75
2023/06/04 07:59:01;;;;;;;5.68;3.90;;;19.10;99.90;;;;;;5072220;28;20051;-75
2023/06/04 08:01:27;;;;;;;5.25;3.80;;;19.20;99.90;;;;;;5072395;28;20025;-75
2023/06/04 08:03:53;;;;;;;6.47;4.18;;;19.20;99.90;;;;;;5072387;28;20492;-75
2023/06/04 08:06:18;;;;;;;5.07;3.60;;;19.40;99.90;;;;;;5072160;28;20071;-75
2023/06/04 08:08:45;;;;;;;6.53;3.70;;;19.50;99.90;;;;;;5072311;28;20161;-75
2023/06/04 08:11:17;;;;;;;6.40;4.32;;;19.40;99.90;;;;;;5071882;28;20031;-75
2023/06/04 08:13:43;;;;;;;9.38;3.53;;;19.40;99.90;;;;;;5071971;28;20025;-75
2023/06/04 08:16:10;;;;;;;6.45;3.58;;;19.60;99.90;;;;;;5072064;28;20430;-75
2023/06/04 08:18:41;;;;;;;4.72;3.28;;;19.60;99.90;;;;;;5071964;28;20043;-75
2023/06/04 08:21:11;;;;;;;5.93;4.30;;;19.60;99.90;;;;;;5072045;28;20024;-75
2023/06/04 08:23:37;;;;;;;7.38;4.70;;;19.70;99.90;;;;;;5070292;28;20519;-75
2023/06/04 08:26:03;;;;;;;5.68;3.72;;;19.80;99.90;;;;;;5072048;28;20025;-75
2023/06/04 08:28:28;;;;;;;5.57;4.05;;;19.90;99.90;;;;;;5072151;28;20036;-75
2023/06/04 08:30:54;;;;;;;6.53;4.03;;;19.90;99.90;;;;;;5071609;28;20040;-76
2023/06/04 08:33:20;;;;;;;6.72;3.92;;;20.00;99.90;;;;;;5071027;28;20510;-75
2023/06/04 08:35:46;;;;;;;6.05;4.10;;;20.00;99.90;;;;;;5071427;28;20028;-75
2023/06/04 08:38:12;;;;;;;12.88;4.03;;;19.80;99.90;;;;;;5071622;28;20031;-75
2023/06/04 08:40:37;;;;;;;7.88;3.72;;;20.00;99.90;;;;;;5070590;28;20020;-75
2023/06/04 08:43:04;;;;;;;8.50;4.03;;;20.00;99.90;;;;;;5066533;28;20025;-76
2023/06/04 08:45:35;;;;;;;5.75;4.25;;;19.90;99.90;;;;;;5068328;28;20067;-75
2023/06/04 08:48:02;;;;;;;6.63;4.05;;;20.30;99.90;;;;;;5068814;28;20078;-75
2023/06/04 08:50:28;;;;;;;5.85;4.35;;;20.30;99.90;;;;;;5070762;28;20036;-75
2023/06/04 08:52:55;;;;;;;23.83;7.30;;;20.20;99.90;;;;;;5071516;28;20502;-75
2023/06/04 08:55:22;;;;;;;7.03;4.22;;;20.00;99.90;;;;;;5070772;28;20081;-75
2023/06/04 08:57:53;;;;;;;19.30;6.47;;;20.20;99.90;;;;;;5071489;28;20059;-75
2023/06/04 09:00:19;;;;;;;20.13;7.40;;;20.20;99.90;;;;;;5071798;28;20016;-75
2023/06/04 09:02:46;;;;;;;6.97;4.57;;;20.20;99.90;;;;;;5071427;28;20081;-75
2023/06/04 09:05:20;;;;;;;6.97;4.47;;;20.10;99.90;;;;;;5070094;28;20024;-75
2023/06/04 09:07:46;;;;;;;6.53;3.97;;;20.20;99.90;;;;;;5070912;28;20028;-75
2023/06/04 09:10:17;;;;;;;6.03;3.92;;;20.30;99.90;;;;;;5070820;28;20040;-75
2023/06/04 09:12:46;;;;;;;7.03;3.63;;;20.30;99.90;;;;;;5070102;28;20371;-75
2023/06/04 09:15:11;;;;;;;5.68;3.38;;;20.50;99.90;;;;;;5070445;28;20505;-75
2023/06/04 09:17:37;;;;;;;6.43;4.30;;;20.50;99.90;;;;;;5070439;28;20036;-75
2023/06/04 09:20:03;;;;;;;7.15;4.25;;;20.50;99.90;;;;;;5070680;28;20024;-75
2023/06/04 09:22:36;;;;;;;6.10;4.07;;;20.50;99.90;;;;;;5070478;28;20440;-75
2023/06/04 09:25:06;;;;;;;5.77;3.60;;;20.60;99.90;;;;;;5070611;28;20608;-75
2023/06/04 09:27:39;;;;;;;5.68;3.78;;;20.60;99.90;;;;;;5070405;28;20081;-75
2023/06/04 09:30:08;;;;;;;6.53;4.05;;;20.70;99.90;;;;;;5070420;28;20027;-76
2023/06/04 09:32:33;;;;;;;5.20;3.83;;;20.70;99.90;;;;;;5070302;28;20033;-75
2023/06/04 09:35:11;;;;;;;7.00;4.43;;;20.80;99.90;;;;;;5070487;28;20028;-75
2023/06/04 09:37:37;;;;;;;5.47;3.83;;;21.00;99.90;;;;;;5070280;28;20115;-75
2023/06/04 09:40:05;;;;;;;6.78;3.85;;;21.10;99.90;;;;;;5070167;28;20024;-75
2023/06/04 09:42:41;;;;;;;6.75;4.25;;;21.20;99.90;;;;;;5070372;28;20464;-75
2023/06/04 09:45:07;;;;;;;5.45;3.72;;;21.60;99.90;;;;;;5070416;28;20029;-75
2023/06/04 09:47:40;;;;;;;6.30;3.65;;;21.80;99.90;;;;;;5070729;28;20646;-76
2023/06/04 09:50:07;;;;;;;6.33;3.90;;;21.70;99.90;;;;;;5070724;28;20047;-75
2023/06/04 09:52:34;;;;;;;21.25;7.03;;;21.70;99.90;;;;;;5070536;28;20028;-75
2023/06/04 09:55:00;;;;;;;10.50;4.78;;;22.10;99.90;;;;;;5070279;28;20191;-75
2023/06/04 09:57:27;;;;;;;11.43;4.50;;;22.00;99.90;;;;;;5070187;28;20049;-75
2023/06/04 09:59:55;;;;;;;9.48;4.47;;;21.70;99.90;;;;;;5070132;28;20029;-75
2023/06/04 10:02:21;;;;;;;8.90;5.20;;;21.50;99.90;;;;;;5069715;28;20477;-75
2023/06/04 10:04:58;;;;;;;6.53;3.58;;;21.50;99.90;;;;;;5070065;28;20016;-75
2023/06/04 10:07:26;;;;;;;5.13;3.42;;;21.30;99.90;;;;;;5069434;28;20042;-76
2023/06/04 10:09:52;;;;;;;8.63;4.40;;;21.10;99.90;;;;;;5069530;28;20028;-75
2023/06/04 10:12:28;;;;;;;6.00;3.03;;;20.90;99.90;;;;;;5069630;28;20444;-75
2023/06/04 10:15:09;;;;;;;7.15;3.92;;;21.00;99.90;;;;;;5069322;28;20067;-75
2023/06/04 10:17:35;;;;;;;5.50;3.03;;;20.90;99.90;;;;;;5068542;28;20583;-75
2023/06/04 10:20:05;;;;;;;9.40;4.00;;;21.10;99.90;;;;;;5069675;28;20028;-75
2023/06/04 10:22:34;;;;;;;11.80;5.05;;;21.20;99.90;;;;;;5069619;28;20055;-75
2023/06/04 10:25:01;;;;;;;6.68;3.10;;;21.10;99.90;;;;;;5069721;28;20025;-75
2023/06/04 10:27:27;;;;;;;7.57;3.28;;;21.00;99.90;;;;;;5069583;28;20036;-75
2023/06/04 10:29:54;;;;;;;5.13;3.15;;;21.10;99.90;;;;;;5069232;28;20043;-75
2023/06/04 10:32:20;;;;;;;4.90;2.90;;;21.20;99.90;;;;;;5068791;28;20075;-75
2023/06/04 10:34:46;;;;;;;12.20;3.88;;;21.40;99.90;;;;;;5068896;28;20370;-75
2023/06/04 10:37:22;;;;;;;5.50;3.10;;;21.80;99.90;;;;;;5068958;28;20032;-75
2023/06/04 10:39:55;;;;;;;5.95;3.05;;;22.00;99.90;;;;;;5069143;28;20056;-76
2023/06/04 10:42:24;;;;;;;7.97;3.10;;;22.10;99.90;;;;;;5069178;28;20073;-76
2023/06/04 10:44:52;;;;;;;4.40;3.00;;;22.00;99.90;;;;;;5068766;28;20488;-75
2023/06/04 10:47:22;;;;;;;4.32;2.50;;;22.10;99.90;;;;;;5069337;28;20029;-75
2023/06/04 10:49:51;;;;;;;4.90;2.47;;;22.10;99.90;;;;;;5069193;28;20846;-75
2023/06/04 10:52:16;;;;;;;6.55;2.67;;;22.00;99.90;;;;;;5067761;28;20039;-75
2023/06/04 10:54:43;;;;;;;4.10;2.45;;;22.10;99.90;;;;;;5068457;28;20032;-76
2023/06/04 10:57:16;;;;;;;4.72;2.42;;;22.10;99.90;;;;;;5068854;28;20052;-75
2023/06/04 10:59:53;;;;;;;5.43;3.22;;;22.30;99.90;;;;;;5069124;28;20024;-75
2023/06/04 11:02:19;;;;;;;5.75;2.67;;;22.10;99.90;;;;;;5056838;28;20033;-74
2023/06/04 11:04:44;;;;;;;7.18;2.90;;;22.10;99.90;;;;;;5068949;28;20107;-74
2023/06/04 11:07:10;;;;;;;6.65;3.53;;;22.00;99.90;;;;;;5068530;28;20032;-74
2023/06/04 11:09:37;;;;;;;5.35;3.10;;;22.00;99.90;;;;;;5068979;28;20067;-74
2023/06/04 11:12:05;;;;;;;5.18;2.78;;;21.80;99.90;;;;;;5069118;28;20036;-74
2023/06/04 11:14:30;;;;;;;5.35;3.47;;;21.80;99.90;;;;;;5068931;28;20025;-74
2023/06/04 11:16:56;;;;;;;5.90;3.22;;;21.60;99.90;;;;;;5061733;28;20040;-74
2023/06/04 11:19:22;;;;;;;5.07;3.10;;;21.60;99.90;;;;;;5067671;28;20056;-74
2023/06/04 11:21:49;;;;;;;5.70;3.25;;;21.50;99.90;;;;;;5067006;28;20028;-74
2023/06/04 11:24:16;;;;;;;5.05;3.25;;;21.40;99.90;;;;;;5068215;28;20024;-75
2023/06/04 11:26:42;;;;;;;6.22;3.80;;;21.50;99.90;;;;;;5068199;28;20078;-75
2023/06/04 11:29:15;;;;;;;5.15;3.35;;;21.60;99.90;;;;;;5068307;28;20036;-75
2023/06/04 11:31:46;;;;;;;7.72;4.35;;;21.70;99.90;;;;;;5068290;28;20037;-74
2023/06/04 11:34:29;;;;;;;5.93;3.22;;;21.80;99.90;;;;;;5068708;28;20025;-74
2023/06/04 11:36:55;;;;;;;6.07;3.42;;;21.50;99.90;;;;;;5068728;28;20516;-74
2023/06/04 11:39:35;;;;;;;5.70;3.58;;;21.70;99.90;;;;;;5068518;28;20097;-74
2023/06/04 11:42:05;;;;;;;7.55;3.50;;;21.50;99.90;;;;;;5068528;28;20027;-74
2023/06/04 11:44:31;;;;;;;4.93;3.28;;;21.30;99.90;;;;;;5068340;28;20486;-74
2023/06/04 11:46:56;;;;;;;6.88;3.17;;;21.10;99.90;;;;;;5068548;28;20082;-74
2023/06/04 11:49:22;;;;;;;5.75;3.67;;;21.00;99.90;;;;;;5068509;28;20604;-74
2023/06/04 11:51:52;;;;;;;5.97;3.03;;;20.90;99.90;;;;;;5067774;28;20031;-74
2023/06/04 11:54:20;;;;;;;5.00;2.67;;;20.80;99.90;;;;;;5068059;28;20522;-74
2023/06/04 11:56:48;;;;;;;4.85;3.45;;;20.70;99.90;;;;;;5067729;28;20055;-74
2023/06/04 11:59:15;;;;;;;6.63;3.60;;;20.60;99.90;;;;;;5068021;28;20027;-74
2023/06/04 12:01:43;;;;;;;6.65;4.85;;;20.80;99.90;;;;;;5068215;28;20028;-74
2023/06/04 12:04:17;;;;;;;4.85;3.08;;;20.80;99.90;;;;;;5068366;28;20020;-74
2023/06/04 12:06:56;;;;;;;8.55;4.18;;;20.80;99.90;;;;;;5067760;28;20071;-75
2023/06/04 12:09:28;;;;;;;4.70;3.05;;;21.10;99.90;;;;;;5068119;28;20028;-74
2023/06/04 12:12:09;;;;;;;4.78;3.17;;;21.10;99.90;;;;;;5067960;28;20072;-74
2023/06/04 12:14:35;;;;;;;4.35;2.67;;;21.20;99.90;;;;;;5068201;28;20395;-74
2023/06/04 12:17:05;;;;;;;3.85;2.35;;;21.40;99.90;;;;;;5068051;28;20058;-74
2023/06/04 12:19:31;;;;;;;4.10;2.85;;;21.50;99.90;;;;;;5067653;28;20075;-74
2023/06/04 12:22:05;;;;;;;4.43;2.20;;;21.60;99.90;;;;;;5067890;28;20154;-74
2023/06/04 12:24:35;;;;;;;3.97;2.35;;;21.40;99.90;;;;;;5067634;28;20490;-74
2023/06/04 12:27:05;;;;;;;6.50;2.70;;;21.90;99.90;;;;;;5067580;28;20319;-74
2023/06/04 12:29:31;;;;;;;3.80;2.47;;;22.40;99.90;;;;;;5067020;28;20040;-74
2023/06/04 12:32:09;;;;;;;3.95;2.38;;;22.70;99.90;;;;;;5067100;28;20341;-74
2023/06/04 12:34:35;;;;;;;4.60;2.45;;;23.00;99.90;;;;;;5067621;28;20481;-74
2023/06/04 12:37:03;;;;;;;5.57;2.58;;;22.90;99.90;;;;;;5067668;28;20077;-74
2023/06/04 12:39:29;;;;;;;3.72;2.22;;;22.80;99.90;;;;;;5068290;28;20025;-74
2023/06/04 12:41:55;;;;;;;4.03;2.53;;;22.80;99.90;;;;;;5071221;28;20064;-74
2023/06/04 12:44:21;;;;;;;4.53;2.67;;;23.00;99.90;;;;;;5070626;28;20475;-74
2023/06/04 12:46:46;;;;;;;4.60;2.53;;;23.20;99.90;;;;;;5071748;28;20048;-74